createdAt,value
2017-08-23T00:00:20.588Z,14.30
2017-08-23T00:02:48.135Z,14.10
2017-08-23T00:05:15.688Z,13.90
2017-08-23T00:07:43.241Z,14.00
2017-08-23T00:10:10.802Z,14.00
2017-08-23T00:12:38.345Z,13.80
2017-08-23T00:15:06.022Z,13.60
2017-08-23T00:17:33.585Z,13.50
2017-08-23T00:20:01.113Z,13.50
2017-08-23T00:22:28.653Z,13.30
2017-08-23T00:24:56.211Z,13.10
2017-08-23T00:27:23.732Z,13.40
2017-08-23T00:29:51.389Z,13.30
2017-08-23T00:32:18.917Z,13.10
2017-08-23T00:34:46.456Z,13.10
2017-08-23T00:37:14.020Z,13.10
2017-08-23T00:39:41.589Z,13.10
2017-08-23T00:42:09.110Z,13.40
2017-08-23T00:44:36.700Z,13.40
2017-08-23T00:47:04.284Z,13.80
2017-08-23T00:49:31.844Z,13.60
2017-08-23T00:51:59.368Z,13.50
2017-08-23T00:54:26.892Z,13.60
2017-08-23T00:56:54.455Z,13.40
2017-08-23T00:59:22.052Z,13.20
2017-08-23T01:01:49.650Z,13.10
2017-08-23T01:04:17.155Z,13.10
2017-08-23T01:06:44.675Z,13.20
2017-08-23T01:09:12.291Z,13.20
2017-08-23T01:11:39.811Z,13.30
2017-08-23T01:14:07.430Z,13.40
2017-08-23T01:16:35.025Z,13.50
2017-08-23T01:19:02.544Z,13.40
2017-08-23T01:21:30.082Z,13.30
2017-08-23T01:23:57.852Z,13.10
2017-08-23T01:26:25.429Z,13.00
2017-08-23T01:28:52.955Z,12.90
2017-08-23T01:31:20.507Z,12.90
2017-08-23T01:33:48.044Z,13.00
2017-08-23T01:36:15.630Z,13.00
2017-08-23T01:38:43.296Z,13.20
2017-08-23T01:41:10.855Z,13.20
2017-08-23T01:43:38.377Z,13.30
2017-08-23T01:46:05.896Z,13.10
2017-08-23T01:48:33.543Z,12.80
2017-08-23T01:51:01.185Z,12.80
2017-08-23T01:53:28.745Z,12.90
2017-08-23T01:55:56.276Z,12.70
2017-08-23T01:58:23.827Z,12.60
2017-08-23T02:00:51.388Z,12.90
2017-08-23T02:03:18.909Z,13.00
2017-08-23T02:05:46.489Z,13.10
2017-08-23T02:08:14.039Z,13.30
2017-08-23T02:10:41.662Z,13.30
2017-08-23T02:13:09.248Z,13.30
2017-08-23T02:15:36.764Z,13.20
2017-08-23T02:18:04.373Z,13.10
2017-08-23T02:20:31.931Z,13.10
2017-08-23T02:22:59.451Z,13.00
2017-08-23T02:25:27.021Z,12.80
2017-08-23T02:27:54.620Z,12.80
2017-08-23T02:30:22.173Z,12.90
2017-08-23T02:32:49.724Z,12.80
2017-08-23T02:35:17.245Z,13.00
2017-08-23T02:37:44.930Z,13.00
2017-08-23T02:40:12.492Z,12.90
2017-08-23T02:42:40.004Z,12.90
2017-08-23T02:45:07.566Z,12.70
2017-08-23T02:47:35.155Z,12.70
2017-08-23T02:50:02.690Z,12.80
2017-08-23T02:52:30.232Z,12.80
2017-08-23T02:54:57.872Z,12.80
2017-08-23T02:57:25.381Z,12.80
2017-08-23T02:59:52.920Z,12.80
2017-08-23T03:02:20.485Z,13.00
2017-08-23T03:04:48.003Z,13.00
2017-08-23T03:07:15.565Z,13.00
2017-08-23T03:09:43.167Z,13.20
2017-08-23T03:12:10.696Z,13.00
2017-08-23T03:14:38.356Z,13.00
2017-08-23T03:17:05.893Z,12.90
2017-08-23T03:19:33.475Z,13.00
2017-08-23T03:22:01.164Z,12.80
2017-08-23T03:24:28.723Z,12.70
2017-08-23T03:26:56.255Z,12.60
2017-08-23T03:29:23.861Z,12.80
2017-08-23T03:31:51.385Z,12.80
2017-08-23T03:34:18.907Z,12.70
2017-08-23T03:36:46.561Z,12.70
2017-08-23T03:39:14.103Z,12.80
2017-08-23T03:41:41.641Z,12.90
2017-08-23T03:44:09.201Z,12.80
2017-08-23T03:46:36.743Z,12.80
2017-08-23T03:49:04.316Z,12.90
2017-08-23T03:51:31.849Z,12.70
2017-08-23T03:53:59.372Z,12.70
2017-08-23T03:56:26.933Z,12.90
2017-08-23T03:58:54.481Z,13.00
2017-08-23T04:01:22.004Z,12.90
2017-08-23T04:03:49.560Z,12.80
2017-08-23T04:06:17.120Z,12.80
2017-08-23T04:08:44.653Z,13.00
2017-08-23T04:11:12.176Z,12.80
2017-08-23T04:13:39.746Z,12.80
2017-08-23T04:16:07.261Z,12.70
2017-08-23T04:18:34.784Z,12.90
2017-08-23T04:21:02.361Z,12.80
2017-08-23T04:23:29.944Z,12.80
2017-08-23T04:25:57.498Z,12.90
2017-08-23T04:28:25.137Z,12.80
2017-08-23T04:30:52.740Z,12.80
2017-08-23T04:33:20.288Z,12.70
2017-08-23T04:35:47.868Z,12.70
2017-08-23T04:38:15.773Z,12.70
2017-08-23T04:40:43.296Z,12.70
2017-08-23T04:43:10.839Z,12.70
2017-08-23T04:45:38.396Z,12.80
2017-08-23T04:48:06.019Z,13.00
2017-08-23T04:50:33.562Z,13.10
2017-08-23T04:53:01.120Z,12.90
2017-08-23T04:55:28.689Z,12.90
2017-08-23T04:57:56.537Z,13.00
2017-08-23T05:00:24.341Z,13.00
2017-08-23T05:02:51.865Z,13.00
2017-08-23T05:05:19.375Z,12.90
2017-08-23T05:07:46.943Z,12.80
2017-08-23T05:10:14.468Z,12.80
2017-08-23T05:12:41.996Z,12.90
2017-08-23T05:15:09.570Z,13.00
2017-08-23T05:17:37.145Z,13.10
2017-08-23T05:20:04.700Z,13.20
2017-08-23T05:22:32.220Z,13.30
2017-08-23T05:24:59.812Z,13.40
2017-08-23T05:27:27.349Z,13.60
2017-08-23T05:29:54.924Z,13.90
2017-08-23T05:32:22.484Z,14.20
2017-08-23T05:34:50.065Z,14.30
2017-08-23T05:37:17.576Z,14.20
2017-08-23T05:39:45.132Z,14.30
2017-08-23T05:42:12.653Z,14.10
2017-08-23T05:44:40.292Z,14.10
2017-08-23T05:47:07.839Z,14.10
2017-08-23T05:49:35.393Z,14.10
2017-08-23T05:52:02.972Z,14.10
2017-08-23T05:54:30.505Z,14.20
2017-08-23T05:56:58.077Z,14.30
2017-08-23T05:59:25.648Z,14.20
2017-08-23T06:01:53.165Z,14.30
2017-08-23T06:04:20.680Z,14.50
2017-08-23T06:06:48.306Z,14.70
2017-08-23T06:09:15.884Z,14.90
2017-08-23T06:11:43.425Z,15.10
2017-08-23T06:14:11.024Z,15.40
2017-08-23T06:16:38.580Z,15.90
2017-08-23T06:19:06.108Z,16.10
2017-08-23T06:21:33.709Z,16.10
2017-08-23T06:24:01.272Z,16.10
2017-08-23T06:26:28.816Z,16.00
2017-08-23T06:28:56.377Z,15.90
2017-08-23T06:31:23.900Z,15.70
2017-08-23T06:33:51.469Z,15.60
2017-08-23T06:36:19.011Z,15.90
2017-08-23T06:38:46.519Z,16.00
2017-08-23T06:41:14.068Z,16.10
2017-08-23T06:43:41.671Z,16.30
2017-08-23T06:46:09.256Z,16.30
2017-08-23T06:48:36.803Z,16.30
2017-08-23T06:51:04.357Z,16.10
2017-08-23T06:53:31.918Z,16.20
2017-08-23T06:55:59.469Z,16.20
2017-08-23T06:58:27.026Z,16.00
2017-08-23T07:00:54.564Z,16.10
2017-08-23T07:03:22.144Z,16.30
2017-08-23T07:05:49.676Z,16.40
2017-08-23T07:08:17.207Z,16.40
2017-08-23T07:10:44.772Z,16.70
2017-08-23T07:13:12.312Z,16.70
2017-08-23T07:15:39.836Z,17.00
2017-08-23T07:18:07.780Z,17.40
2017-08-23T07:20:35.284Z,17.60
2017-08-23T07:23:02.833Z,17.90
2017-08-23T07:25:30.421Z,18.10
2017-08-23T07:27:58.003Z,18.40
2017-08-23T07:30:25.613Z,18.60
2017-08-23T07:32:53.123Z,18.80
2017-08-23T07:35:20.675Z,19.30
2017-08-23T07:37:48.192Z,19.50
2017-08-23T07:40:15.736Z,19.70
2017-08-23T07:42:43.253Z,19.70
2017-08-23T07:45:10.891Z,19.80
2017-08-23T07:47:38.411Z,20.20
2017-08-23T07:50:06.032Z,20.40
2017-08-23T07:52:33.551Z,20.70
2017-08-23T07:55:01.096Z,21.10
2017-08-23T07:57:28.661Z,21.60
2017-08-23T07:59:56.172Z,21.80
2017-08-23T08:02:23.776Z,21.90
2017-08-23T08:04:51.300Z,21.80
2017-08-23T08:07:18.825Z,21.40
2017-08-23T08:09:46.393Z,21.30
2017-08-23T08:12:13.919Z,21.20
2017-08-23T08:14:41.632Z,21.40
2017-08-23T08:17:09.158Z,21.50
2017-08-23T08:19:36.734Z,21.50
2017-08-23T08:22:04.276Z,21.80
2017-08-23T08:24:31.864Z,21.90
2017-08-23T08:26:59.417Z,22.20
2017-08-23T08:29:26.996Z,22.20
2017-08-23T08:31:54.556Z,22.10
2017-08-23T08:34:22.128Z,22.50
2017-08-23T08:36:49.663Z,22.90
2017-08-23T08:39:17.215Z,22.60
2017-08-23T08:41:44.796Z,22.40
2017-08-23T08:44:12.323Z,22.50
2017-08-23T08:46:39.883Z,22.60
2017-08-23T08:49:07.460Z,22.50
2017-08-23T08:51:35.049Z,22.70
2017-08-23T08:54:02.609Z,23.10
2017-08-23T08:56:30.192Z,23.50
2017-08-23T08:58:57.735Z,23.60
2017-08-23T09:01:25.281Z,23.70
2017-08-23T09:03:52.856Z,24.00
2017-08-23T09:06:20.396Z,24.00
2017-08-23T09:08:47.955Z,24.20
2017-08-23T09:11:15.505Z,24.30
2017-08-23T09:13:43.067Z,24.20
2017-08-23T09:16:10.723Z,24.40
2017-08-23T09:18:38.256Z,24.70
2017-08-23T09:21:05.801Z,24.70
2017-08-23T09:23:33.348Z,24.80
2017-08-23T09:26:00.887Z,25.00
2017-08-23T09:28:28.437Z,24.90
2017-08-23T09:30:55.953Z,24.90
2017-08-23T09:33:23.535Z,24.90
2017-08-23T09:35:51.083Z,24.90
2017-08-23T09:38:18.628Z,24.90
2017-08-23T09:40:46.212Z,25.20
2017-08-23T09:43:13.733Z,25.40
2017-08-23T09:45:41.248Z,25.60
2017-08-23T09:48:08.845Z,25.40
2017-08-23T09:50:36.377Z,25.70
2017-08-23T09:53:03.957Z,25.90
2017-08-23T09:55:31.496Z,26.00
2017-08-23T09:57:59.049Z,26.10
2017-08-23T10:00:26.578Z,26.10
2017-08-23T10:02:54.099Z,26.20
2017-08-23T10:05:21.680Z,26.50
2017-08-23T10:07:49.275Z,26.80
2017-08-23T10:10:16.887Z,26.80
2017-08-23T10:12:44.408Z,26.60
2017-08-23T10:15:12.045Z,26.40
2017-08-23T10:17:39.568Z,26.30
2017-08-23T10:20:07.079Z,26.60
2017-08-23T10:22:34.757Z,26.90
2017-08-23T10:25:02.332Z,27.10
2017-08-23T10:27:29.893Z,27.30
2017-08-23T10:29:57.416Z,27.30
2017-08-23T10:32:24.979Z,26.90
2017-08-23T10:34:52.512Z,27.00
2017-08-23T10:37:20.027Z,27.00
2017-08-23T10:39:47.579Z,26.80
2017-08-23T10:42:15.092Z,27.20
2017-08-23T10:44:42.663Z,27.10
2017-08-23T10:47:10.259Z,27.10
2017-08-23T10:49:37.793Z,27.10
2017-08-23T10:52:05.348Z,27.40
2017-08-23T10:54:32.864Z,27.40
2017-08-23T10:57:00.429Z,26.90
2017-08-23T10:59:27.968Z,27.00
2017-08-23T11:01:55.558Z,27.10
2017-08-23T11:04:23.092Z,27.20
2017-08-23T11:06:50.683Z,27.40
2017-08-23T11:09:18.291Z,27.50
2017-08-23T11:11:45.861Z,27.60
2017-08-23T11:14:13.400Z,27.60
2017-08-23T11:16:40.964Z,27.30
2017-08-23T11:19:08.535Z,27.30
2017-08-23T11:21:36.119Z,27.50
2017-08-23T11:24:03.641Z,28.00
2017-08-23T11:26:31.272Z,28.30
2017-08-23T11:28:58.801Z,28.30
2017-08-23T11:31:26.353Z,28.10
2017-08-23T11:33:53.903Z,28.20
2017-08-23T11:36:21.513Z,28.10
2017-08-23T11:38:49.072Z,28.60
2017-08-23T11:41:16.649Z,29.00
2017-08-23T11:43:44.241Z,29.20
2017-08-23T11:46:11.805Z,29.30
2017-08-23T11:48:39.396Z,29.40
2017-08-23T11:51:06.965Z,29.60
2017-08-23T11:53:34.505Z,29.20
2017-08-23T11:56:02.018Z,29.00
2017-08-23T11:58:29.629Z,28.60
2017-08-23T12:00:57.172Z,28.60
2017-08-23T12:03:24.773Z,28.90
2017-08-23T12:05:52.303Z,29.10
2017-08-23T12:08:19.912Z,29.70
2017-08-23T12:10:47.545Z,29.90
2017-08-23T12:13:15.067Z,29.50
2017-08-23T12:15:42.615Z,29.40
2017-08-23T12:18:10.168Z,29.40
2017-08-23T12:20:37.748Z,29.40
2017-08-23T12:23:05.332Z,29.40
2017-08-23T12:25:32.912Z,29.50
2017-08-23T12:28:00.487Z,29.60
2017-08-23T12:30:28.108Z,29.70
2017-08-23T12:32:55.665Z,29.50
2017-08-23T12:35:23.232Z,29.30
2017-08-23T12:37:50.762Z,29.00
2017-08-23T12:40:18.348Z,28.80
2017-08-23T12:42:45.878Z,29.00
2017-08-23T12:45:13.443Z,29.10
2017-08-23T12:47:40.973Z,29.30
2017-08-23T12:50:08.494Z,29.30
2017-08-23T12:52:36.068Z,29.30
2017-08-23T12:55:03.615Z,29.10
2017-08-23T12:57:31.156Z,28.70
2017-08-23T12:59:58.744Z,28.20
2017-08-23T13:02:26.265Z,28.00
2017-08-23T13:04:53.802Z,27.70
2017-08-23T13:07:21.355Z,27.40
2017-08-23T13:09:48.980Z,27.30
2017-08-23T13:12:16.519Z,27.10
2017-08-23T13:14:44.045Z,27.00
2017-08-23T13:17:11.568Z,26.80
2017-08-23T13:19:39.176Z,26.70
2017-08-23T13:22:06.736Z,26.40
2017-08-23T13:24:34.255Z,26.20
2017-08-23T13:27:01.826Z,26.20
2017-08-23T13:29:29.363Z,26.00
2017-08-23T13:31:56.888Z,25.80
2017-08-23T13:34:24.450Z,25.80
2017-08-23T13:36:51.963Z,25.80
2017-08-23T13:39:19.485Z,25.80
2017-08-23T13:41:47.046Z,25.80
2017-08-23T13:44:14.575Z,25.80
2017-08-23T13:46:42.088Z,25.90
2017-08-23T13:49:09.667Z,25.80
2017-08-23T13:51:37.245Z,25.80
2017-08-23T13:54:04.844Z,25.80
2017-08-23T13:56:32.364Z,25.90
2017-08-23T13:58:59.883Z,25.90
2017-08-23T14:01:27.446Z,25.60
2017-08-23T14:03:54.975Z,25.50
2017-08-23T14:06:22.504Z,25.40
2017-08-23T14:08:50.052Z,25.40
2017-08-23T14:11:17.600Z,25.60
2017-08-23T14:13:45.169Z,25.60
2017-08-23T14:16:12.717Z,25.60
2017-08-23T14:18:40.280Z,25.60
2017-08-23T14:21:07.856Z,25.50
2017-08-23T14:23:35.372Z,25.50
2017-08-23T14:26:03.018Z,25.60
2017-08-23T14:28:30.476Z,25.50
2017-08-23T14:30:57.995Z,25.60
2017-08-23T14:33:25.548Z,25.60
2017-08-23T14:35:53.094Z,25.40
2017-08-23T14:38:20.677Z,25.40
2017-08-23T14:40:48.208Z,25.40
2017-08-23T14:43:15.771Z,25.40
2017-08-23T14:45:43.286Z,25.40
2017-08-23T14:48:10.817Z,25.50
2017-08-23T14:50:38.548Z,25.30
2017-08-23T14:53:06.076Z,25.40
2017-08-23T14:55:33.619Z,25.30
2017-08-23T14:58:01.193Z,25.40
2017-08-23T15:00:28.712Z,25.20
2017-08-23T15:02:56.250Z,25.10
2017-08-23T15:05:23.830Z,25.00
2017-08-23T15:07:51.360Z,25.00
2017-08-23T15:10:18.928Z,25.10
2017-08-23T15:12:46.481Z,25.20
2017-08-23T15:15:14.012Z,25.30
2017-08-23T15:17:41.571Z,25.10
2017-08-23T15:20:09.123Z,24.90
2017-08-23T15:22:36.712Z,24.70
2017-08-23T15:25:04.318Z,24.70
2017-08-23T15:27:31.838Z,24.70
2017-08-23T15:29:59.364Z,24.70
2017-08-23T15:32:26.948Z,24.70
2017-08-23T15:34:54.528Z,24.70
2017-08-23T15:37:22.103Z,24.70
2017-08-23T15:39:49.671Z,24.60
2017-08-23T15:42:17.200Z,24.60
2017-08-23T15:44:44.796Z,24.60
2017-08-23T15:47:12.332Z,24.60
2017-08-23T15:49:39.888Z,24.60
2017-08-23T15:52:07.413Z,24.40
2017-08-23T15:54:34.980Z,24.60
2017-08-23T15:57:02.556Z,24.50
2017-08-23T15:59:30.317Z,24.40
2017-08-23T16:01:57.835Z,24.60
2017-08-23T16:04:25.384Z,24.60
2017-08-23T16:06:52.920Z,24.70
2017-08-23T16:09:20.445Z,24.70
2017-08-23T16:11:48.873Z,24.70
2017-08-23T16:14:17.148Z,24.70
2017-08-23T16:16:44.750Z,24.70
2017-08-23T16:19:12.308Z,24.50
2017-08-23T16:21:39.829Z,24.50
2017-08-23T16:24:07.517Z,24.40
2017-08-23T16:26:35.139Z,24.50
2017-08-23T16:29:02.696Z,24.50
2017-08-23T16:31:30.233Z,24.60
2017-08-23T16:33:57.796Z,24.60
2017-08-23T16:36:25.318Z,24.60
2017-08-23T16:38:52.959Z,24.40
2017-08-23T16:41:20.504Z,24.40
2017-08-23T16:43:48.028Z,24.40
2017-08-23T16:46:15.761Z,24.40
2017-08-23T16:48:43.276Z,24.30
2017-08-23T16:51:10.789Z,24.30
2017-08-23T16:53:38.336Z,24.30
2017-08-23T16:56:05.908Z,24.20
2017-08-23T16:58:33.453Z,24.20
2017-08-23T17:01:01.240Z,24.10
2017-08-23T17:03:28.753Z,24.10
2017-08-23T17:05:56.269Z,24.10
2017-08-23T17:08:23.816Z,24.00
2017-08-23T17:10:51.329Z,23.90
2017-08-23T17:13:18.872Z,24.00
2017-08-23T17:15:46.437Z,23.80
2017-08-23T17:18:14.048Z,23.80
2017-08-23T17:20:41.566Z,23.70
2017-08-23T17:23:09.151Z,23.80
2017-08-23T17:25:36.692Z,23.60
2017-08-23T17:28:04.215Z,23.50
2017-08-23T17:30:31.951Z,23.50
2017-08-23T17:32:59.521Z,23.50
2017-08-23T17:35:27.316Z,23.40
2017-08-23T17:37:54.875Z,23.40
2017-08-23T17:40:22.408Z,23.30
2017-08-23T17:42:50.008Z,23.30
2017-08-23T17:45:17.532Z,23.20
2017-08-23T17:47:45.073Z,23.10
2017-08-23T17:50:12.615Z,23.10
2017-08-23T17:52:41.088Z,23.00
2017-08-23T17:55:08.635Z,23.10
2017-08-23T17:57:36.198Z,23.00
2017-08-23T18:00:03.760Z,22.90
2017-08-23T18:02:31.300Z,22.80
2017-08-23T18:04:58.848Z,22.60
2017-08-23T18:07:26.355Z,22.50
2017-08-23T18:09:53.907Z,22.60
2017-08-23T18:12:21.416Z,22.50
2017-08-23T18:14:48.971Z,22.50
2017-08-23T18:17:16.489Z,22.50
2017-08-23T18:19:44.022Z,22.40
2017-08-23T18:22:11.572Z,22.40
2017-08-23T18:24:39.084Z,22.20
2017-08-23T18:27:06.635Z,22.20
2017-08-23T18:29:34.150Z,22.00
2017-08-23T18:32:01.703Z,22.00
2017-08-23T18:34:29.220Z,22.10
2017-08-23T18:36:56.728Z,21.90
2017-08-23T18:39:24.282Z,21.70
2017-08-23T18:41:51.800Z,21.70
2017-08-23T18:44:19.343Z,21.60
2017-08-23T18:46:46.855Z,21.50
2017-08-23T18:49:14.537Z,21.60
2017-08-23T18:51:42.052Z,21.50
2017-08-23T18:54:09.571Z,21.40
2017-08-23T18:56:37.168Z,21.40
2017-08-23T18:59:04.704Z,21.40
2017-08-23T19:01:32.240Z,21.20
2017-08-23T19:03:59.785Z,20.90
2017-08-23T19:06:27.389Z,20.60
2017-08-23T19:08:54.921Z,20.30
2017-08-23T19:11:22.468Z,20.20
2017-08-23T19:13:50.008Z,20.00
2017-08-23T19:16:17.549Z,20.30
2017-08-23T19:18:45.063Z,20.10
2017-08-23T19:21:12.596Z,20.00
2017-08-23T19:23:40.144Z,20.20
2017-08-23T19:26:07.652Z,20.10
2017-08-23T19:28:35.215Z,20.20
2017-08-23T19:31:02.731Z,20.20
2017-08-23T19:33:30.240Z,20.00
2017-08-23T19:35:57.792Z,19.80
2017-08-23T19:38:25.313Z,19.60
2017-08-23T19:40:52.854Z,19.70
2017-08-23T19:43:20.400Z,19.90
2017-08-23T19:45:47.905Z,20.00
2017-08-23T19:48:15.456Z,20.10
2017-08-23T19:50:42.964Z,20.30
2017-08-23T19:53:10.515Z,20.30
2017-08-23T19:55:38.047Z,20.30
2017-08-23T19:58:05.564Z,20.10
2017-08-23T20:00:33.105Z,20.20
2017-08-23T20:03:00.616Z,20.20
2017-08-23T20:05:28.176Z,20.20
2017-08-23T20:07:55.697Z,20.10
2017-08-23T20:10:23.241Z,20.20
2017-08-23T20:12:50.789Z,20.30
2017-08-23T20:15:18.373Z,20.30
2017-08-23T20:17:45.901Z,20.10
2017-08-23T20:20:13.415Z,19.90
2017-08-23T20:22:40.964Z,19.80
2017-08-23T20:25:08.485Z,19.80
2017-08-23T20:27:36.056Z,19.80
2017-08-23T20:30:03.564Z,19.80
2017-08-23T20:32:31.072Z,19.90
2017-08-23T20:34:58.672Z,19.90
2017-08-23T20:37:26.239Z,19.80
2017-08-23T20:39:53.788Z,19.50
2017-08-23T20:42:21.319Z,19.60
2017-08-23T20:44:48.880Z,19.60
2017-08-23T20:47:16.403Z,19.40
2017-08-23T20:49:43.919Z,19.30
2017-08-23T20:52:11.477Z,19.20
2017-08-23T20:54:38.988Z,19.30
2017-08-23T20:57:06.499Z,19.20
2017-08-23T20:59:34.056Z,19.20
2017-08-23T21:02:01.576Z,19.20
2017-08-23T21:04:29.099Z,19.20
2017-08-23T21:06:56.696Z,19.20
2017-08-23T21:09:24.240Z,19.20
2017-08-23T21:11:51.786Z,19.20
2017-08-23T21:14:19.304Z,19.10
2017-08-23T21:16:46.857Z,19.10
2017-08-23T21:19:14.423Z,19.00
2017-08-23T21:21:41.940Z,18.90
2017-08-23T21:24:09.496Z,19.00
2017-08-23T21:26:37.052Z,19.00
2017-08-23T21:29:04.572Z,19.00
2017-08-23T21:31:32.108Z,18.90
2017-08-23T21:33:59.668Z,18.80
2017-08-23T21:36:27.216Z,18.80
2017-08-23T21:38:54.764Z,18.70
2017-08-23T21:41:22.275Z,18.60
2017-08-23T21:43:49.816Z,18.50
2017-08-23T21:46:17.331Z,18.40
2017-08-23T21:48:44.875Z,18.30
2017-08-23T21:51:12.452Z,18.20
2017-08-23T21:53:39.968Z,18.10
2017-08-23T21:56:07.507Z,18.10
2017-08-23T21:58:35.086Z,18.10
2017-08-23T22:01:02.612Z,18.20
2017-08-23T22:03:30.126Z,18.10
2017-08-23T22:05:57.763Z,18.20
2017-08-23T22:08:25.290Z,18.10
2017-08-23T22:10:52.808Z,18.10
2017-08-23T22:13:20.397Z,18.20
2017-08-23T22:15:47.907Z,18.10
2017-08-23T22:18:15.424Z,18.30
2017-08-23T22:20:42.976Z,18.20
2017-08-23T22:23:10.489Z,18.00
2017-08-23T22:25:38.042Z,18.00
2017-08-23T22:28:05.599Z,18.00
2017-08-23T22:30:33.117Z,18.10
2017-08-23T22:33:00.631Z,18.00
2017-08-23T22:35:28.183Z,18.00
2017-08-23T22:37:55.751Z,17.80
2017-08-23T22:40:23.307Z,17.60
2017-08-23T22:42:50.823Z,17.30
2017-08-23T22:45:18.465Z,17.30
2017-08-23T22:47:46.355Z,17.20
2017-08-23T22:50:13.860Z,17.20
2017-08-23T22:52:41.440Z,17.10
2017-08-23T22:55:08.953Z,17.20
2017-08-23T22:57:36.469Z,17.50
2017-08-23T23:00:04.082Z,17.20
2017-08-23T23:02:31.595Z,17.40
2017-08-23T23:04:59.108Z,17.40
2017-08-23T23:07:26.655Z,17.30
2017-08-23T23:09:54.170Z,17.00
2017-08-23T23:12:21.728Z,17.20
2017-08-23T23:14:49.232Z,17.10
2017-08-23T23:17:16.745Z,16.90
2017-08-23T23:19:44.313Z,16.90
2017-08-23T23:22:11.899Z,16.90
2017-08-23T23:24:39.411Z,17.00
2017-08-23T23:27:06.933Z,17.10
2017-08-23T23:29:34.477Z,16.80
2017-08-23T23:32:01.988Z,16.70
2017-08-23T23:34:29.568Z,16.60
2017-08-23T23:36:57.088Z,16.70
2017-08-23T23:39:24.602Z,16.60
2017-08-23T23:41:52.169Z,16.70
2017-08-23T23:44:19.680Z,16.60
2017-08-23T23:46:47.289Z,16.70
2017-08-23T23:49:14.988Z,16.70
2017-08-23T23:51:42.752Z,17.00
2017-08-23T23:54:10.279Z,16.90
2017-08-23T23:56:37.838Z,17.00
2017-08-23T23:59:05.367Z,16.90
